createdAt,value
2022-11-24T00:01:29.676Z,100.00
2022-11-24T00:03:59.504Z,99.02
2022-11-24T00:06:27.229Z,98.97
2022-11-24T00:11:28.595Z,97.65
2022-11-24T00:13:55.770Z,96.69
2022-11-24T00:16:25.958Z,96.57
2022-11-24T00:18:54.652Z,96.90
2022-11-24T00:21:21.695Z,98.06
2022-11-24T00:23:49.826Z,98.95
2022-11-24T00:26:17.792Z,98.39
2022-11-24T00:28:45.942Z,98.94
2022-11-24T00:34:04.830Z,99.18
2022-11-24T00:39:15.622Z,98.03
2022-11-24T00:41:43.048Z,98.53
2022-11-24T00:44:09.839Z,99.70
2022-11-24T00:46:36.702Z,99.79
2022-11-24T00:49:03.686Z,99.86
2022-11-24T00:51:30.898Z,99.99
2022-11-24T00:53:58.975Z,99.36
2022-11-24T00:56:26.878Z,100.00
2022-11-24T00:58:54.112Z,99.10
2022-11-24T01:01:26.599Z,98.81
2022-11-24T01:06:28.347Z,99.37
2022-11-24T01:08:57.006Z,98.89
2022-11-24T01:11:27.720Z,96.91
2022-11-24T01:13:59.528Z,96.11
2022-11-24T01:16:33.421Z,96.38
2022-11-24T01:19:01.035Z,96.70
2022-11-24T01:23:59.240Z,95.56
2022-11-24T01:26:25.912Z,95.99
2022-11-24T01:31:29.557Z,95.29
2022-11-24T01:36:27.588Z,95.06
2022-11-24T01:38:54.283Z,94.72
2022-11-24T01:41:24.217Z,95.08
2022-11-24T01:43:52.398Z,94.35
2022-11-24T01:46:27.917Z,94.54
2022-11-24T01:49:21.057Z,94.38
2022-11-24T01:54:34.297Z,94.96
2022-11-24T01:57:07.912Z,94.99
2022-11-24T01:59:34.895Z,96.07
2022-11-24T02:02:02.421Z,95.99
2022-11-24T02:04:33.395Z,96.14
2022-11-24T02:07:03.343Z,95.08
2022-11-24T02:09:40.754Z,94.87
2022-11-24T02:12:07.717Z,94.48
2022-11-24T02:14:36.765Z,94.41
2022-11-24T02:17:03.471Z,93.71
2022-11-24T02:19:57.657Z,93.48
2022-11-24T02:22:33.016Z,93.97
2022-11-24T02:25:06.978Z,93.57
2022-11-24T02:30:07.574Z,93.21
2022-11-24T02:32:34.833Z,93.45
2022-11-24T02:35:06.402Z,93.52
2022-11-24T02:37:33.171Z,93.96
2022-11-24T02:39:59.936Z,93.42
2022-11-24T02:42:34.086Z,92.82
2022-11-24T02:45:01.896Z,93.23
2022-11-24T02:47:28.720Z,92.75
2022-11-24T02:49:55.391Z,93.18
2022-11-24T02:52:22.123Z,93.71
2022-11-24T02:54:48.824Z,94.34
2022-11-24T02:57:15.670Z,94.40
2022-11-24T02:59:42.355Z,94.49
2022-11-24T03:02:10.603Z,94.07
2022-11-24T03:04:37.323Z,94.31
2022-11-24T03:07:04.062Z,93.73
2022-11-24T03:09:30.796Z,93.93
2022-11-24T03:11:57.475Z,94.70
2022-11-24T03:17:07.159Z,94.65
2022-11-24T03:19:33.998Z,94.94
2022-11-24T03:22:00.704Z,95.31
2022-11-24T03:24:27.486Z,95.96
2022-11-24T03:26:54.146Z,95.68
2022-11-24T03:29:20.878Z,95.33
2022-11-24T03:31:47.654Z,95.74
2022-11-24T03:34:14.273Z,95.91
2022-11-24T03:36:41.083Z,95.94
2022-11-24T03:41:39.483Z,96.96
2022-11-24T03:44:06.143Z,96.99
2022-11-24T03:46:32.848Z,96.76
2022-11-24T03:48:59.701Z,96.74
2022-11-24T03:51:26.331Z,97.06
2022-11-24T03:53:52.951Z,96.79
2022-11-24T03:56:19.593Z,97.69
2022-11-24T03:58:46.227Z,96.94
2022-11-24T04:03:50.971Z,96.37
2022-11-24T04:08:49.299Z,96.33
2022-11-24T04:14:14.644Z,95.33
2022-11-24T04:16:41.548Z,95.42
2022-11-24T04:19:08.262Z,94.87
2022-11-24T04:21:35.094Z,94.43
2022-11-24T04:24:01.789Z,94.81
2022-11-24T04:31:38.315Z,94.61
2022-11-24T04:34:05.148Z,94.83
2022-11-24T04:36:31.841Z,94.07
2022-11-24T04:39:19.483Z,94.17
2022-11-24T04:41:47.572Z,93.51
2022-11-24T04:44:14.260Z,93.93
2022-11-24T04:49:19.472Z,94.18
2022-11-24T04:51:46.559Z,94.00
2022-11-24T04:54:14.245Z,94.15
2022-11-24T04:56:42.505Z,94.01
2022-11-24T04:59:13.647Z,93.70
2022-11-24T05:01:40.530Z,93.69
2022-11-24T05:06:39.108Z,93.71
2022-11-24T05:09:06.906Z,93.48
2022-11-24T05:11:34.596Z,93.20
2022-11-24T05:14:02.012Z,93.12
2022-11-24T05:16:28.764Z,92.93
2022-11-24T05:18:55.452Z,93.05
2022-11-24T05:21:22.200Z,92.36
2022-11-24T05:23:48.844Z,92.66
2022-11-24T05:26:15.521Z,92.21
2022-11-24T05:31:20.954Z,91.96
2022-11-24T05:36:37.858Z,90.77
2022-11-24T05:39:04.566Z,90.97
2022-11-24T05:41:31.242Z,90.16
2022-11-24T05:43:57.896Z,90.87
2022-11-24T05:46:24.584Z,90.99
2022-11-24T05:48:51.340Z,91.44
2022-11-24T05:51:18.212Z,90.69
2022-11-24T05:53:44.895Z,90.44
2022-11-24T05:56:11.633Z,90.08
2022-11-24T05:58:38.309Z,90.14
2022-11-24T06:01:08.084Z,90.21
2022-11-24T06:03:34.853Z,89.99
2022-11-24T06:06:01.704Z,90.84
2022-11-24T06:08:31.198Z,89.90
2022-11-24T06:11:17.674Z,89.40
2022-11-24T06:13:45.714Z,90.25
2022-11-24T06:18:51.695Z,90.12
2022-11-24T06:21:18.496Z,89.23
2022-11-24T06:23:48.791Z,89.52
2022-11-24T06:26:17.996Z,88.84
2022-11-24T06:34:13.323Z,87.31
2022-11-24T06:36:40.492Z,87.51
2022-11-24T06:44:28.531Z,87.70
2022-11-24T06:49:28.660Z,87.61
2022-11-24T06:57:18.685Z,88.42
2022-11-24T06:59:45.336Z,88.88
2022-11-24T07:02:12.039Z,88.33
2022-11-24T07:04:38.758Z,88.49
2022-11-24T07:07:05.482Z,88.23
2022-11-24T07:09:32.188Z,88.45
2022-11-24T07:11:58.909Z,88.51
2022-11-24T07:16:58.980Z,89.23
2022-11-24T07:19:25.740Z,90.29
2022-11-24T07:21:52.429Z,90.62
2022-11-24T07:24:19.180Z,91.73
2022-11-24T07:26:45.819Z,91.20
2022-11-24T07:29:12.480Z,92.93
2022-11-24T07:34:14.982Z,95.13
2022-11-24T07:36:42.672Z,95.37
2022-11-24T07:39:09.347Z,97.67
2022-11-24T07:41:35.984Z,98.79
2022-11-24T07:44:02.701Z,98.53
2022-11-24T07:46:29.497Z,98.45
2022-11-24T07:48:56.219Z,100.00
2022-11-24T07:53:54.291Z,100.00
2022-11-24T07:56:20.970Z,100.00
2022-11-24T07:58:52.665Z,100.00
2022-11-24T08:01:20.290Z,100.00
2022-11-24T08:03:47.760Z,100.00
2022-11-24T08:06:39.405Z,100.00
2022-11-24T08:09:01.808Z,100.00
2022-11-24T08:11:28.699Z,100.00
2022-11-24T08:13:55.438Z,100.00
2022-11-24T08:16:22.300Z,100.00
2022-11-24T08:18:51.459Z,100.00
2022-11-24T08:21:18.317Z,100.00
2022-11-24T08:26:22.127Z,100.00
2022-11-24T08:28:54.765Z,100.00
2022-11-24T08:31:21.518Z,100.00
2022-11-24T08:33:48.330Z,100.00
2022-11-24T08:41:33.369Z,100.00
2022-11-24T08:46:37.584Z,100.00
2022-11-24T08:49:05.479Z,100.00
2022-11-24T08:51:32.183Z,100.00
2022-11-24T08:54:01.767Z,100.00
2022-11-24T08:56:31.323Z,100.00
2022-11-24T08:58:58.688Z,100.00
2022-11-24T09:01:26.645Z,100.00
2022-11-24T09:06:31.957Z,100.00
2022-11-24T09:11:31.089Z,100.00
2022-11-24T09:13:57.952Z,100.00
2022-11-24T09:16:27.746Z,100.00
2022-11-24T09:19:00.178Z,99.84
2022-11-24T09:21:27.692Z,98.76
2022-11-24T09:23:55.401Z,98.15
2022-11-24T09:26:33.661Z,97.29
2022-11-24T09:29:01.402Z,98.46
2022-11-24T09:31:34.535Z,95.44
2022-11-24T09:34:02.983Z,98.61
2022-11-24T09:36:31.474Z,97.76
2022-11-24T09:38:58.543Z,98.50
2022-11-24T09:41:51.872Z,98.41
2022-11-24T09:47:14.091Z,99.12
2022-11-24T09:49:58.517Z,99.23
2022-11-24T09:52:49.882Z,99.20
2022-11-24T09:55:25.423Z,96.03
2022-11-24T09:58:03.317Z,96.31
2022-11-24T10:00:30.649Z,98.46
2022-11-24T10:02:57.791Z,99.12
2022-11-24T10:05:27.385Z,99.24
2022-11-24T10:08:17.447Z,98.32
2022-11-24T10:10:53.990Z,97.22
2022-11-24T10:13:28.552Z,95.54
2022-11-24T10:16:15.823Z,93.59
2022-11-24T10:19:02.065Z,94.01
2022-11-24T10:21:59.737Z,93.09
2022-11-24T10:24:32.491Z,90.22
2022-11-24T10:27:04.074Z,94.14
2022-11-24T10:29:42.241Z,91.39
2022-11-24T10:34:53.195Z,90.00
2022-11-24T10:37:40.734Z,89.12
2022-11-24T10:40:49.094Z,89.89
2022-11-24T10:45:44.079Z,91.26
2022-11-24T10:51:05.727Z,89.79
2022-11-24T10:53:35.790Z,91.27
2022-11-24T10:56:05.170Z,88.49
2022-11-24T11:01:15.515Z,88.21
2022-11-24T11:04:01.747Z,90.08
2022-11-24T11:06:31.061Z,86.95
2022-11-24T11:09:06.614Z,88.86
2022-11-24T11:11:35.246Z,88.74
2022-11-24T11:16:53.023Z,88.79
2022-11-24T11:19:54.284Z,88.39
2022-11-24T11:22:37.271Z,86.92
2022-11-24T11:25:07.271Z,86.47
2022-11-24T11:27:33.955Z,88.71
2022-11-24T11:35:49.554Z,90.24
2022-11-24T11:38:16.289Z,89.07
2022-11-24T11:43:30.509Z,86.63
2022-11-24T11:46:04.146Z,84.61
2022-11-24T11:48:42.626Z,86.30
2022-11-24T11:51:54.213Z,88.84
2022-11-24T11:54:35.505Z,86.25
2022-11-24T11:57:23.226Z,86.41
2022-11-24T12:02:53.548Z,87.67
2022-11-24T12:09:18.659Z,86.82
2022-11-24T12:12:31.788Z,81.93
2022-11-24T12:15:10.802Z,84.82
2022-11-24T12:20:43.132Z,84.35
2022-11-24T12:23:43.667Z,86.08
2022-11-24T12:26:19.120Z,86.74
2022-11-24T12:28:57.568Z,85.27
2022-11-24T12:31:42.106Z,82.79
2022-11-24T12:37:26.834Z,85.14
2022-11-24T12:40:03.752Z,82.66
2022-11-24T12:42:42.277Z,85.37
2022-11-24T12:48:14.157Z,85.08
2022-11-24T12:50:44.433Z,83.32
2022-11-24T12:53:17.842Z,80.69
2022-11-24T12:55:45.695Z,81.82
2022-11-24T12:58:45.802Z,82.81
2022-11-24T13:01:32.037Z,82.63
2022-11-24T13:04:16.885Z,82.58
2022-11-24T13:09:17.859Z,82.66
2022-11-24T13:11:46.321Z,80.82
2022-11-24T13:14:17.627Z,80.17
2022-11-24T13:17:27.942Z,83.89
2022-11-24T13:19:46.319Z,80.75
2022-11-24T13:22:25.181Z,80.38
2022-11-24T13:25:20.514Z,79.06
2022-11-24T13:30:35.915Z,73.45
2022-11-24T13:33:16.227Z,75.39
2022-11-24T13:36:04.484Z,74.40
2022-11-24T13:41:32.140Z,72.61
2022-11-24T13:44:13.995Z,72.56
2022-11-24T13:47:06.502Z,71.08
2022-11-24T13:49:46.597Z,70.35
2022-11-24T13:52:38.131Z,73.65
2022-11-24T13:55:20.904Z,73.65
2022-11-24T13:58:13.790Z,73.30
2022-11-24T14:01:03.545Z,73.55
2022-11-24T14:03:34.920Z,73.96
2022-11-24T14:06:03.413Z,74.20
2022-11-24T14:08:33.896Z,74.28
2022-11-24T14:11:02.416Z,75.41
2022-11-24T14:13:31.995Z,76.58
2022-11-24T14:18:40.964Z,76.50
2022-11-24T14:21:28.306Z,76.43
2022-11-24T14:24:19.104Z,76.24
2022-11-24T14:37:21.658Z,72.70
2022-11-24T14:39:48.632Z,75.89
2022-11-24T14:42:24.313Z,76.85
2022-11-24T14:44:59.428Z,77.74
2022-11-24T14:47:38.919Z,78.45
2022-11-24T14:50:16.604Z,79.21
2022-11-24T14:52:53.396Z,78.86
2022-11-24T14:55:29.458Z,77.85
2022-11-24T14:57:56.907Z,79.45
2022-11-24T15:00:30.356Z,75.72
2022-11-24T15:03:18.665Z,75.62
2022-11-24T15:05:54.831Z,79.41
2022-11-24T15:08:22.724Z,75.34
2022-11-24T15:10:57.335Z,79.42
2022-11-24T15:13:25.149Z,80.52
2022-11-24T15:16:02.044Z,78.17
2022-11-24T15:24:18.714Z,82.43
2022-11-24T15:26:46.134Z,82.75
2022-11-24T15:29:13.178Z,82.48
2022-11-24T15:31:41.298Z,82.41
2022-11-24T15:34:12.792Z,82.46
2022-11-24T15:36:39.430Z,82.82
2022-11-24T15:39:06.142Z,82.08
2022-11-24T15:41:34.015Z,81.24
2022-11-24T15:49:09.241Z,80.78
2022-11-24T15:51:42.072Z,81.34
2022-11-24T15:54:13.700Z,81.21
2022-11-24T15:56:42.048Z,82.85
2022-11-24T15:59:20.207Z,82.27
2022-11-24T16:01:49.884Z,82.53
2022-11-24T16:04:16.924Z,82.67
2022-11-24T16:09:17.272Z,82.07
2022-11-24T16:11:44.090Z,82.44
2022-11-24T16:14:10.820Z,79.76
2022-11-24T16:16:37.576Z,79.26
2022-11-24T16:19:04.221Z,78.22
2022-11-24T16:21:30.894Z,79.08
2022-11-24T16:23:57.539Z,79.97
2022-11-24T16:26:24.169Z,81.59
2022-11-24T16:28:51.048Z,83.15
2022-11-24T16:31:19.262Z,82.81
2022-11-24T16:36:24.423Z,81.14
2022-11-24T16:38:51.078Z,80.96
2022-11-24T16:41:17.811Z,82.11
2022-11-24T16:43:44.446Z,83.47
2022-11-24T16:49:01.138Z,81.26
2022-11-24T16:51:32.989Z,80.67
2022-11-24T16:54:02.550Z,82.54
2022-11-24T16:56:30.636Z,82.51
2022-11-24T16:58:57.263Z,81.77
2022-11-24T17:01:24.138Z,81.26
2022-11-24T17:03:50.905Z,81.24
2022-11-24T17:06:18.040Z,81.27
2022-11-24T17:08:46.122Z,82.59
2022-11-24T17:11:18.139Z,83.87
2022-11-24T17:13:46.122Z,83.98
2022-11-24T17:16:15.070Z,85.10
2022-11-24T17:18:42.254Z,85.91
2022-11-24T17:21:14.758Z,83.84
2022-11-24T17:23:41.725Z,82.09
2022-11-24T17:26:12.328Z,79.26
2022-11-24T17:28:39.548Z,79.96
2022-11-24T17:31:32.268Z,78.85
2022-11-24T17:34:00.463Z,80.29
2022-11-24T17:36:28.173Z,79.33
2022-11-24T17:38:54.899Z,80.13
2022-11-24T17:41:22.618Z,79.02
2022-11-24T17:43:54.085Z,77.56
2022-11-24T17:46:20.924Z,77.45
2022-11-24T17:48:48.049Z,78.32
2022-11-24T17:51:17.245Z,78.33
2022-11-24T17:58:55.148Z,81.07
2022-11-24T18:01:22.597Z,79.87
2022-11-24T18:03:53.366Z,80.95
2022-11-24T18:06:21.232Z,82.12
2022-11-24T18:11:25.961Z,82.04
2022-11-24T18:14:00.578Z,80.75
2022-11-24T18:16:30.555Z,80.00
2022-11-24T18:19:15.069Z,81.12
2022-11-24T18:24:18.462Z,82.01
2022-11-24T18:26:48.029Z,81.38
2022-11-24T18:29:14.708Z,81.41
2022-11-24T18:31:41.494Z,82.04
2022-11-24T18:34:08.379Z,82.59
2022-11-24T18:39:08.133Z,81.53
2022-11-24T18:44:08.208Z,83.80
2022-11-24T18:46:35.225Z,85.49
2022-11-24T18:49:01.917Z,85.97
2022-11-24T18:51:28.746Z,87.02
2022-11-24T18:56:38.909Z,86.62
2022-11-24T19:01:43.664Z,84.23
2022-11-24T19:04:10.379Z,84.41
2022-11-24T19:06:38.152Z,85.23
2022-11-24T19:09:08.202Z,81.46
2022-11-24T19:11:37.565Z,81.10
2022-11-24T19:14:06.660Z,80.63
2022-11-24T19:16:33.876Z,81.64
2022-11-24T19:19:02.631Z,82.01
2022-11-24T19:21:34.406Z,81.85
2022-11-24T19:24:05.345Z,82.44
2022-11-24T19:26:33.387Z,83.17
2022-11-24T19:29:00.020Z,83.60
2022-11-24T19:31:26.973Z,84.41
2022-11-24T19:33:54.831Z,84.42
2022-11-24T19:36:22.673Z,84.93
2022-11-24T19:41:34.115Z,86.22
2022-11-24T19:44:00.883Z,86.91
2022-11-24T19:46:29.933Z,87.81
2022-11-24T19:48:59.660Z,88.19
2022-11-24T19:51:32.279Z,88.33
2022-11-24T19:54:00.025Z,88.00
2022-11-24T19:56:28.990Z,88.00
2022-11-24T19:58:56.529Z,88.00
2022-11-24T20:01:24.744Z,88.29
2022-11-24T20:03:59.432Z,88.73
2022-11-24T20:06:28.027Z,88.97
2022-11-24T20:08:54.845Z,89.44
2022-11-24T20:11:22.021Z,89.16
2022-11-24T20:16:30.313Z,88.37
2022-11-24T20:18:59.603Z,87.60
2022-11-24T20:21:31.673Z,87.52
2022-11-24T20:23:58.266Z,88.16
2022-11-24T20:26:26.438Z,88.19
2022-11-24T20:28:54.794Z,88.79
2022-11-24T20:31:30.895Z,89.19
2022-11-24T20:33:57.860Z,89.85
2022-11-24T20:36:27.045Z,89.77
2022-11-24T20:38:54.541Z,89.62
2022-11-24T20:41:21.138Z,89.88
2022-11-24T20:43:48.734Z,89.16
2022-11-24T20:46:19.338Z,89.16
2022-11-24T20:48:46.593Z,90.57
2022-11-24T20:51:16.685Z,90.90
2022-11-24T20:53:43.618Z,93.69
2022-11-24T20:56:13.799Z,91.86
2022-11-24T20:58:40.804Z,90.76
2022-11-24T21:01:10.734Z,90.52
2022-11-24T21:03:42.798Z,92.22
2022-11-24T21:06:11.445Z,92.14
2022-11-24T21:08:39.622Z,92.89
2022-11-24T21:11:08.122Z,99.69
2022-11-24T21:13:37.073Z,90.67
2022-11-24T21:16:20.172Z,90.02
2022-11-24T21:18:50.895Z,89.99
2022-11-24T21:21:19.606Z,89.97
2022-11-24T21:23:47.006Z,90.13
2022-11-24T21:26:16.821Z,90.04
2022-11-24T21:28:45.849Z,90.45
2022-11-24T21:31:17.592Z,89.81
2022-11-24T21:33:52.562Z,90.29
2022-11-24T21:36:26.388Z,91.23
2022-11-24T21:38:55.510Z,91.73
2022-11-24T21:41:23.454Z,91.87
2022-11-24T21:43:50.411Z,90.91
2022-11-24T21:46:17.801Z,91.09
2022-11-24T21:48:44.758Z,91.13
2022-11-24T21:51:14.367Z,95.16
2022-11-24T21:53:41.629Z,91.97
2022-11-24T21:56:13.033Z,92.50
2022-11-24T21:58:54.923Z,92.25
2022-11-24T22:01:27.572Z,92.55
2022-11-24T22:03:54.907Z,93.36
2022-11-24T22:06:21.854Z,94.71
2022-11-24T22:08:49.153Z,94.31
2022-11-24T22:11:21.475Z,94.02
2022-11-24T22:13:49.088Z,95.55
2022-11-24T22:16:19.021Z,96.72
2022-11-24T22:18:46.416Z,96.31
2022-11-24T22:23:52.190Z,97.25
2022-11-24T22:26:21.371Z,98.41
2022-11-24T22:28:48.114Z,98.39
2022-11-24T22:31:26.091Z,97.84
2022-11-24T22:33:54.411Z,98.14
2022-11-24T22:36:23.203Z,97.77
2022-11-24T22:38:58.328Z,98.11
2022-11-24T22:41:25.964Z,97.94
2022-11-24T22:43:53.670Z,97.41
2022-11-24T22:46:25.543Z,96.76
2022-11-24T22:48:53.894Z,94.91
2022-11-24T22:51:25.240Z,94.28
2022-11-24T22:53:54.264Z,94.71
2022-11-24T22:56:23.646Z,93.50
2022-11-24T22:58:50.935Z,94.48
2022-11-24T23:01:18.739Z,94.85
2022-11-24T23:03:45.696Z,94.60
2022-11-24T23:06:21.090Z,94.50
2022-11-24T23:08:48.578Z,94.14
2022-11-24T23:11:32.749Z,94.11
2022-11-24T23:14:02.013Z,93.49
2022-11-24T23:16:31.561Z,93.71
2022-11-24T23:18:58.548Z,94.12
2022-11-24T23:21:31.326Z,93.69
2022-11-24T23:23:59.738Z,95.64
2022-11-24T23:26:31.470Z,96.00
2022-11-24T23:28:58.382Z,96.46
2022-11-24T23:31:29.418Z,97.23
2022-11-24T23:33:58.441Z,96.90
2022-11-24T23:36:25.487Z,96.63
2022-11-24T23:38:52.379Z,97.75
2022-11-24T23:41:24.358Z,97.94
2022-11-24T23:43:51.296Z,97.68
2022-11-24T23:46:22.983Z,98.02
2022-11-24T23:48:50.738Z,98.88
2022-11-24T23:51:18.545Z,98.59
2022-11-24T23:53:45.728Z,99.06
2022-11-24T23:56:15.466Z,100.00
2022-11-24T23:58:42.520Z,99.73
